createdAt,value
2022-12-23T00:01:23.592Z,5.30
2022-12-23T00:03:50.931Z,5.30
2022-12-23T00:06:19.555Z,5.30
2022-12-23T00:08:46.952Z,5.40
2022-12-23T00:11:19.716Z,5.30
2022-12-23T00:14:05.468Z,5.30
2022-12-23T00:16:35.337Z,5.30
2022-12-23T00:19:02.289Z,5.30
2022-12-23T00:21:29.185Z,5.40
2022-12-23T00:23:56.057Z,5.50
2022-12-23T00:26:25.476Z,5.50
2022-12-23T00:28:52.955Z,5.60
2022-12-23T00:31:20.117Z,5.60
2022-12-23T00:33:49.184Z,5.60
2022-12-23T00:36:27.711Z,5.60
2022-12-23T00:39:14.526Z,5.60
2022-12-23T00:42:00.035Z,5.60
2022-12-23T00:44:27.288Z,5.70
2022-12-23T00:46:54.380Z,5.80
2022-12-23T00:49:40.290Z,5.80
2022-12-23T00:52:09.482Z,5.80
2022-12-23T00:54:36.644Z,5.80
2022-12-23T00:57:04.341Z,5.80
2022-12-23T00:59:31.567Z,5.80
2022-12-23T01:02:16.928Z,5.80
2022-12-23T01:05:02.666Z,5.90
2022-12-23T01:07:29.574Z,5.90
2022-12-23T01:09:56.494Z,5.80
2022-12-23T01:12:23.538Z,5.80
2022-12-23T01:14:50.418Z,5.90
2022-12-23T01:17:18.732Z,5.90
2022-12-23T01:19:45.668Z,5.90
2022-12-23T01:22:12.597Z,5.90
2022-12-23T01:24:39.526Z,5.90
2022-12-23T01:27:06.406Z,5.90
2022-12-23T01:29:33.388Z,5.90
2022-12-23T01:32:00.348Z,5.80
2022-12-23T01:34:32.537Z,5.90
2022-12-23T01:37:03.221Z,5.90
2022-12-23T01:39:30.140Z,5.80
2022-12-23T01:42:15.606Z,5.80
2022-12-23T01:44:49.959Z,5.80
2022-12-23T01:47:49.385Z,5.80
2022-12-23T01:50:19.258Z,5.80
2022-12-23T01:53:09.301Z,5.80
2022-12-23T01:55:40.803Z,5.80
2022-12-23T01:58:13.449Z,5.80
2022-12-23T02:01:00.944Z,5.70
2022-12-23T02:03:43.354Z,5.70
2022-12-23T02:06:49.215Z,5.70
2022-12-23T02:09:20.567Z,5.70
2022-12-23T02:12:14.132Z,5.60
2022-12-23T02:15:20.550Z,5.60
2022-12-23T02:17:53.220Z,5.60
2022-12-23T02:20:28.863Z,5.60
2022-12-23T02:23:14.407Z,5.60
2022-12-23T02:25:54.967Z,5.60
2022-12-23T02:28:30.853Z,5.60
2022-12-23T02:31:14.798Z,5.60
2022-12-23T02:34:04.979Z,5.60
2022-12-23T02:37:01.797Z,5.60
2022-12-23T02:39:44.751Z,5.50
2022-12-23T02:42:41.409Z,5.50
2022-12-23T02:45:22.624Z,5.50
2022-12-23T02:47:57.893Z,5.50
2022-12-23T02:50:30.706Z,5.50
2022-12-23T02:53:20.669Z,5.50
2022-12-23T02:55:51.866Z,5.40
2022-12-23T02:58:23.011Z,5.40
2022-12-23T03:00:50.907Z,5.30
2022-12-23T03:03:17.961Z,5.40
2022-12-23T03:05:48.137Z,5.30
2022-12-23T03:08:25.474Z,5.30
2022-12-23T03:11:17.361Z,5.30
2022-12-23T03:14:00.603Z,5.30
2022-12-23T03:16:54.022Z,5.30
2022-12-23T03:19:28.622Z,5.30
2022-12-23T03:22:16.693Z,5.30
2022-12-23T03:24:59.062Z,5.40
2022-12-23T03:27:28.093Z,5.40
2022-12-23T03:30:00.735Z,5.40
2022-12-23T03:32:32.374Z,5.40
2022-12-23T03:35:02.466Z,5.40
2022-12-23T03:37:32.837Z,5.30
2022-12-23T03:40:09.036Z,5.30
2022-12-23T03:42:39.910Z,5.40
2022-12-23T03:45:38.076Z,5.40
2022-12-23T03:48:11.080Z,5.40
2022-12-23T03:50:39.509Z,5.40
2022-12-23T03:53:16.829Z,5.40
2022-12-23T03:55:56.405Z,5.40
2022-12-23T03:58:41.642Z,5.40
2022-12-23T04:01:18.683Z,5.40
2022-12-23T04:04:16.741Z,5.30
2022-12-23T04:06:51.998Z,5.40
2022-12-23T04:09:22.551Z,5.40
2022-12-23T04:11:50.467Z,5.40
2022-12-23T04:14:22.023Z,5.40
2022-12-23T04:16:53.915Z,5.40
2022-12-23T04:19:20.889Z,5.40
2022-12-23T04:21:47.829Z,5.40
2022-12-23T04:24:14.771Z,5.30
2022-12-23T04:26:41.649Z,5.30
2022-12-23T04:29:08.558Z,5.30
2022-12-23T04:31:35.533Z,5.30
2022-12-23T04:34:02.523Z,5.20
2022-12-23T04:36:29.465Z,5.20
2022-12-23T04:38:56.649Z,5.30
2022-12-23T04:41:24.409Z,5.30
2022-12-23T04:43:53.226Z,5.30
2022-12-23T04:46:20.871Z,5.30
2022-12-23T04:48:47.887Z,5.30
2022-12-23T04:51:14.821Z,5.30
2022-12-23T04:53:41.767Z,5.30
2022-12-23T04:56:08.704Z,5.30
2022-12-23T04:58:35.768Z,5.30
2022-12-23T05:01:08.460Z,5.30
2022-12-23T05:03:36.167Z,5.30
2022-12-23T05:06:03.509Z,5.20
2022-12-23T05:08:30.458Z,5.20
2022-12-23T05:10:57.877Z,5.20
2022-12-23T05:13:25.075Z,5.10
2022-12-23T05:15:53.855Z,5.10
2022-12-23T05:18:21.344Z,5.10
2022-12-23T05:20:49.831Z,5.10
2022-12-23T05:23:16.718Z,5.10
2022-12-23T05:25:43.661Z,5.10
2022-12-23T05:28:10.898Z,5.20
2022-12-23T05:30:37.883Z,5.10
2022-12-23T05:33:04.816Z,5.10
2022-12-23T05:35:31.739Z,5.00
2022-12-23T05:37:58.651Z,5.00
2022-12-23T05:40:25.572Z,5.00
2022-12-23T05:42:54.483Z,5.00
2022-12-23T05:45:21.398Z,5.00
2022-12-23T05:47:48.279Z,5.00
2022-12-23T05:50:15.302Z,4.90
2022-12-23T05:52:42.190Z,4.90
2022-12-23T05:55:09.545Z,4.80
2022-12-23T05:57:36.443Z,4.80
2022-12-23T06:00:04.310Z,4.80
2022-12-23T06:02:31.360Z,4.70
2022-12-23T06:04:58.421Z,4.70
2022-12-23T06:07:25.390Z,4.80
2022-12-23T06:09:52.293Z,4.90
2022-12-23T06:12:19.164Z,5.00
2022-12-23T06:14:46.089Z,4.90
2022-12-23T06:17:12.970Z,5.00
2022-12-23T06:19:39.905Z,4.90
2022-12-23T06:22:06.917Z,4.90
2022-12-23T06:24:33.843Z,4.80
2022-12-23T06:27:00.780Z,4.80
2022-12-23T06:29:27.766Z,4.70
2022-12-23T06:31:54.762Z,4.70
2022-12-23T06:34:21.691Z,4.70
2022-12-23T06:36:48.769Z,4.70
2022-12-23T06:39:15.691Z,4.70
2022-12-23T06:41:42.657Z,4.80
2022-12-23T06:44:10.194Z,4.70
2022-12-23T06:46:37.231Z,4.60
2022-12-23T06:49:10.938Z,4.60
2022-12-23T06:51:39.886Z,4.50
2022-12-23T06:54:06.786Z,4.50
2022-12-23T06:56:34.345Z,4.40
2022-12-23T06:59:01.234Z,4.40
2022-12-23T07:01:28.227Z,4.40
2022-12-23T07:03:55.214Z,4.50
2022-12-23T07:06:22.194Z,4.60
2022-12-23T07:08:50.408Z,4.70
2022-12-23T07:11:17.290Z,4.70
2022-12-23T07:13:45.766Z,4.70
2022-12-23T07:16:12.792Z,4.80
2022-12-23T07:18:39.775Z,4.80
2022-12-23T07:21:11.853Z,4.70
2022-12-23T07:23:44.866Z,4.70
2022-12-23T07:26:11.768Z,4.70
2022-12-23T07:28:38.716Z,4.70
2022-12-23T07:31:06.638Z,4.80
2022-12-23T07:33:33.595Z,4.70
2022-12-23T07:36:00.556Z,4.70
2022-12-23T07:38:27.472Z,4.70
2022-12-23T07:40:54.477Z,4.70
2022-12-23T07:43:21.361Z,4.70
2022-12-23T07:45:51.348Z,4.70
2022-12-23T07:48:22.579Z,4.60
2022-12-23T07:50:49.506Z,4.60
2022-12-23T07:53:16.378Z,4.50
2022-12-23T07:55:43.266Z,4.50
2022-12-23T07:58:10.228Z,4.50
2022-12-23T08:00:37.131Z,4.50
2022-12-23T08:03:04.277Z,4.50
2022-12-23T08:05:31.639Z,4.50
2022-12-23T08:07:58.531Z,4.60
2022-12-23T08:10:25.546Z,4.50
2022-12-23T08:12:52.420Z,4.40
2022-12-23T08:15:19.361Z,4.50
2022-12-23T08:17:46.247Z,4.40
2022-12-23T08:20:13.363Z,4.50
2022-12-23T08:22:40.342Z,4.50
2022-12-23T08:25:07.707Z,4.40
2022-12-23T08:27:35.821Z,4.40
2022-12-23T08:30:03.362Z,4.50
2022-12-23T08:32:30.299Z,4.40
2022-12-23T08:34:57.754Z,4.40
2022-12-23T08:37:25.278Z,4.50
2022-12-23T08:39:52.197Z,4.50
2022-12-23T08:42:19.827Z,4.60
2022-12-23T08:44:46.700Z,4.60
2022-12-23T08:47:13.683Z,4.70
2022-12-23T08:49:40.702Z,4.60
2022-12-23T08:52:07.637Z,4.60
2022-12-23T08:54:34.585Z,4.60
2022-12-23T08:57:01.455Z,4.60
2022-12-23T08:59:28.395Z,4.60
2022-12-23T09:01:55.446Z,4.50
2022-12-23T09:04:22.423Z,4.60
2022-12-23T09:06:49.501Z,4.60
2022-12-23T09:09:16.462Z,4.60
2022-12-23T09:11:43.720Z,4.60
2022-12-23T09:14:11.378Z,4.60
2022-12-23T09:16:38.927Z,4.70
2022-12-23T09:19:06.030Z,4.70
2022-12-23T09:21:33.013Z,4.80
2022-12-23T09:23:59.884Z,4.90
2022-12-23T09:26:29.671Z,5.10
2022-12-23T09:28:57.013Z,5.10
2022-12-23T09:31:26.701Z,5.20
2022-12-23T09:33:56.479Z,5.20
2022-12-23T09:36:23.468Z,5.20
2022-12-23T09:38:59.569Z,5.20
2022-12-23T09:41:29.469Z,5.30
2022-12-23T09:44:23.752Z,5.30
2022-12-23T09:46:57.577Z,5.30
2022-12-23T09:49:24.664Z,5.30
2022-12-23T09:51:55.829Z,5.20
2022-12-23T09:54:25.984Z,5.20
2022-12-23T09:57:11.071Z,5.20
2022-12-23T09:59:56.022Z,5.10
2022-12-23T10:02:38.551Z,5.00
2022-12-23T10:05:15.986Z,4.90
2022-12-23T10:07:57.893Z,5.00
2022-12-23T10:10:48.799Z,5.10
2022-12-23T10:13:35.814Z,5.20
2022-12-23T10:16:13.857Z,5.20
2022-12-23T10:18:51.276Z,5.20
2022-12-23T10:21:46.909Z,5.20
2022-12-23T10:24:26.673Z,5.10
2022-12-23T10:26:59.449Z,5.20
2022-12-23T10:29:30.620Z,5.20
2022-12-23T10:32:16.606Z,5.30
2022-12-23T10:35:15.792Z,5.30
2022-12-23T10:38:00.879Z,5.40
2022-12-23T10:40:51.427Z,5.50
2022-12-23T10:43:41.395Z,5.50
2022-12-23T10:46:17.532Z,5.60
2022-12-23T10:48:47.170Z,5.60
2022-12-23T10:51:50.866Z,5.50
2022-12-23T10:54:35.984Z,5.60
2022-12-23T10:57:05.708Z,5.60
2022-12-23T10:59:34.973Z,5.70
2022-12-23T11:02:13.994Z,5.60
2022-12-23T11:04:43.192Z,5.70
2022-12-23T11:07:48.624Z,5.70
2022-12-23T11:10:23.331Z,5.60
2022-12-23T11:12:53.538Z,5.70
2022-12-23T11:15:29.075Z,5.70
2022-12-23T11:18:12.334Z,5.80
2022-12-23T11:20:41.959Z,5.80
2022-12-23T11:23:31.216Z,5.80
2022-12-23T11:26:10.067Z,5.80
2022-12-23T11:28:40.957Z,5.90
2022-12-23T11:31:12.462Z,5.80
2022-12-23T11:33:46.436Z,5.80
2022-12-23T11:36:13.284Z,5.90
2022-12-23T11:38:58.675Z,5.90
2022-12-23T11:41:37.638Z,6.00
2022-12-23T11:44:38.409Z,6.00
2022-12-23T11:47:39.313Z,6.00
2022-12-23T11:50:27.062Z,6.00
2022-12-23T11:53:24.482Z,6.10
2022-12-23T11:56:06.482Z,6.10
2022-12-23T11:58:45.285Z,6.10
2022-12-23T12:01:25.296Z,6.10
2022-12-23T12:03:59.738Z,6.20
2022-12-23T12:06:27.993Z,6.20
2022-12-23T12:08:58.341Z,6.20
2022-12-23T12:11:48.571Z,6.20
2022-12-23T12:14:34.162Z,6.20
2022-12-23T12:17:48.272Z,6.20
2022-12-23T12:20:31.991Z,6.30
2022-12-23T12:23:13.911Z,6.30
2022-12-23T12:26:00.259Z,6.30
2022-12-23T12:28:37.702Z,6.30
2022-12-23T12:31:35.633Z,6.30
2022-12-23T12:34:05.274Z,6.40
2022-12-23T12:36:42.380Z,6.40
2022-12-23T12:39:43.155Z,6.40
2022-12-23T12:42:21.226Z,6.40
2022-12-23T12:44:55.851Z,6.40
2022-12-23T12:47:53.854Z,6.40
2022-12-23T12:50:30.251Z,6.50
2022-12-23T12:53:03.876Z,6.50
2022-12-23T12:55:37.466Z,6.50
2022-12-23T12:58:04.355Z,6.50
2022-12-23T13:00:46.755Z,6.50
2022-12-23T13:03:41.697Z,6.50
2022-12-23T13:06:30.200Z,6.50
2022-12-23T13:09:13.216Z,6.50
2022-12-23T13:11:55.176Z,6.60
2022-12-23T13:14:22.029Z,6.60
2022-12-23T13:17:00.710Z,6.60
2022-12-23T13:19:40.957Z,6.70
2022-12-23T13:22:17.562Z,6.70
2022-12-23T13:25:19.359Z,6.60
2022-12-23T13:28:00.483Z,6.60
2022-12-23T13:30:32.248Z,6.70
2022-12-23T13:33:41.119Z,6.70
2022-12-23T13:36:51.862Z,6.70
2022-12-23T13:39:28.020Z,6.60
2022-12-23T13:42:04.826Z,6.60
2022-12-23T13:44:35.253Z,6.70
2022-12-23T13:47:22.703Z,6.70
2022-12-23T13:49:55.754Z,6.70
2022-12-23T13:52:57.324Z,6.70
2022-12-23T13:55:39.092Z,6.70
2022-12-23T13:58:15.226Z,6.80
2022-12-23T14:00:42.873Z,6.80
2022-12-23T14:03:09.759Z,6.80
2022-12-23T14:05:36.802Z,6.70
2022-12-23T14:08:33.185Z,6.80
2022-12-23T14:11:30.771Z,6.80
2022-12-23T14:14:06.512Z,6.80
2022-12-23T14:17:00.991Z,6.80
2022-12-23T14:19:45.655Z,6.80
2022-12-23T14:22:18.344Z,6.80
2022-12-23T14:25:23.928Z,6.80
2022-12-23T14:28:02.584Z,6.80
2022-12-23T14:30:42.672Z,6.70
2022-12-23T14:33:24.265Z,6.70
2022-12-23T14:36:11.429Z,6.70
2022-12-23T14:38:38.554Z,6.70
2022-12-23T14:41:36.564Z,6.70
2022-12-23T14:44:03.958Z,6.70
2022-12-23T14:46:37.214Z,6.70
2022-12-23T14:49:37.012Z,6.70
2022-12-23T14:51:51.205Z,6.70
2022-12-23T14:54:36.547Z,6.70
2022-12-23T14:57:17.610Z,6.70
2022-12-23T15:00:01.898Z,6.60
2022-12-23T15:02:37.171Z,6.60
2022-12-23T15:05:05.156Z,6.60
2022-12-23T15:07:32.025Z,6.60
2022-12-23T15:10:01.805Z,6.60
2022-12-23T15:12:33.827Z,6.60
2022-12-23T15:15:13.776Z,6.70
2022-12-23T15:17:40.877Z,6.60
2022-12-23T15:20:11.248Z,6.60
2022-12-23T15:22:39.739Z,6.60
2022-12-23T15:25:18.882Z,6.60
2022-12-23T15:27:46.102Z,6.60
2022-12-23T15:30:16.095Z,6.60
2022-12-23T15:32:45.292Z,6.60
2022-12-23T15:35:22.363Z,6.60
2022-12-23T15:37:50.565Z,6.60
2022-12-23T15:40:33.893Z,6.60
2022-12-23T15:43:01.796Z,6.60
2022-12-23T15:45:42.361Z,6.50
2022-12-23T15:48:35.362Z,6.40
2022-12-23T15:51:12.796Z,6.40
2022-12-23T15:53:42.733Z,6.40
2022-12-23T15:56:20.303Z,6.40
2022-12-23T15:58:47.893Z,6.40
2022-12-23T16:01:17.975Z,6.30
2022-12-23T16:03:51.355Z,6.30
2022-12-23T16:06:25.558Z,6.30
2022-12-23T16:09:04.765Z,6.40
2022-12-23T16:11:56.758Z,6.40
2022-12-23T16:14:24.570Z,6.30
2022-12-23T16:16:52.767Z,6.30
2022-12-23T16:19:43.067Z,6.30
2022-12-23T16:22:33.685Z,6.30
2022-12-23T16:25:17.273Z,6.40
2022-12-23T16:27:47.957Z,6.40
2022-12-23T16:30:15.257Z,6.40
2022-12-23T16:32:50.380Z,6.40
2022-12-23T16:35:30.699Z,6.40
2022-12-23T16:38:10.158Z,6.40
2022-12-23T16:40:37.307Z,6.40
2022-12-23T16:43:04.659Z,6.40
2022-12-23T16:45:32.998Z,6.30
2022-12-23T16:48:00.959Z,6.40
2022-12-23T16:50:28.153Z,6.40
2022-12-23T16:52:55.076Z,6.40
2022-12-23T16:55:21.925Z,6.40
2022-12-23T16:57:50.531Z,6.40
2022-12-23T17:00:19.481Z,6.40
2022-12-23T17:02:47.932Z,6.30
2022-12-23T17:05:20.235Z,6.40
2022-12-23T17:07:47.650Z,6.30
2022-12-23T17:10:17.673Z,6.30
2022-12-23T17:12:46.395Z,6.30
2022-12-23T17:15:19.686Z,6.30
2022-12-23T17:17:47.406Z,6.20
2022-12-23T17:20:14.991Z,6.20
2022-12-23T17:22:44.531Z,6.20
2022-12-23T17:25:21.179Z,6.20
2022-12-23T17:27:53.306Z,6.30
2022-12-23T17:30:24.239Z,6.30
2022-12-23T17:32:58.524Z,6.30
2022-12-23T17:35:26.815Z,6.20
2022-12-23T17:37:53.776Z,6.10
2022-12-23T17:40:21.969Z,6.10
2022-12-23T17:42:49.084Z,6.10
2022-12-23T17:45:26.327Z,6.10
2022-12-23T17:47:53.632Z,6.10
2022-12-23T17:50:21.670Z,5.90
2022-12-23T17:52:48.989Z,5.90
2022-12-23T17:55:21.596Z,5.90
2022-12-23T17:57:48.831Z,5.90
2022-12-23T18:00:25.436Z,6.00
2022-12-23T18:02:58.608Z,6.00
2022-12-23T18:05:29.188Z,6.00
2022-12-23T18:08:01.153Z,6.10
2022-12-23T18:10:34.764Z,6.10
2022-12-23T18:13:05.209Z,6.00
2022-12-23T18:15:38.613Z,6.00
2022-12-23T18:18:27.237Z,6.00
2022-12-23T18:20:57.541Z,6.00
2022-12-23T18:23:27.682Z,6.10
2022-12-23T18:25:56.202Z,6.00
2022-12-23T18:28:23.784Z,6.00
2022-12-23T18:30:52.747Z,6.00
2022-12-23T18:33:19.883Z,6.00
2022-12-23T18:35:50.433Z,5.90
2022-12-23T18:38:18.638Z,5.90
2022-12-23T18:40:45.698Z,5.90
2022-12-23T18:43:24.241Z,5.80
2022-12-23T18:45:53.579Z,5.70
2022-12-23T18:48:20.605Z,5.70
2022-12-23T18:50:47.491Z,5.70
2022-12-23T18:53:25.208Z,5.70
2022-12-23T18:55:53.729Z,5.70
2022-12-23T18:58:21.205Z,5.70
2022-12-23T19:00:49.348Z,5.50
2022-12-23T19:03:28.265Z,5.50
2022-12-23T19:05:56.182Z,5.50
2022-12-23T19:08:27.233Z,5.50
2022-12-23T19:10:55.970Z,5.40
2022-12-23T19:13:23.734Z,5.40
2022-12-23T19:15:50.748Z,5.50
2022-12-23T19:18:19.866Z,5.50
2022-12-23T19:20:47.686Z,5.50
2022-12-23T19:23:15.698Z,5.40
2022-12-23T19:25:52.454Z,5.50
2022-12-23T19:28:21.853Z,5.50
2022-12-23T19:30:49.164Z,5.50
2022-12-23T19:33:16.240Z,5.40
2022-12-23T19:35:43.868Z,5.40
2022-12-23T19:38:12.367Z,5.40
2022-12-23T19:40:39.824Z,5.50
2022-12-23T19:43:07.161Z,5.50
2022-12-23T19:45:34.157Z,5.60
2022-12-23T19:48:01.242Z,5.70
2022-12-23T19:50:28.447Z,5.70
2022-12-23T19:52:56.459Z,5.70
2022-12-23T19:55:23.923Z,5.70
2022-12-23T19:57:51.836Z,5.70
2022-12-23T20:00:18.991Z,5.70
2022-12-23T20:02:46.203Z,5.70
2022-12-23T20:05:13.207Z,5.70
2022-12-23T20:07:40.131Z,5.70
2022-12-23T20:10:08.071Z,5.70
2022-12-23T20:12:35.351Z,5.70
2022-12-23T20:15:02.637Z,5.70
2022-12-23T20:17:29.910Z,5.70
2022-12-23T20:19:56.989Z,5.70
2022-12-23T20:22:24.249Z,5.70
2022-12-23T20:24:51.792Z,5.70
2022-12-23T20:27:24.229Z,5.80
2022-12-23T20:29:54.884Z,5.80
2022-12-23T20:32:21.933Z,5.80
2022-12-23T20:34:50.270Z,5.80
2022-12-23T20:37:17.708Z,5.70
2022-12-23T20:39:44.656Z,5.60
2022-12-23T20:42:11.551Z,5.60
2022-12-23T20:44:38.446Z,5.60
2022-12-23T20:47:06.560Z,5.50
2022-12-23T20:49:33.506Z,5.60
2022-12-23T20:52:00.480Z,5.60
2022-12-23T20:54:33.430Z,5.50
2022-12-23T20:57:02.242Z,5.40
2022-12-23T20:59:29.483Z,5.40
2022-12-23T21:01:59.198Z,5.40
2022-12-23T21:04:26.617Z,5.30
2022-12-23T21:06:53.811Z,5.30
2022-12-23T21:09:20.831Z,5.30
2022-12-23T21:11:47.859Z,5.20
2022-12-23T21:14:16.146Z,5.20
2022-12-23T21:16:43.444Z,5.20
2022-12-23T21:19:18.613Z,5.20
2022-12-23T21:21:46.330Z,5.10
2022-12-23T21:24:14.170Z,5.10
2022-12-23T21:26:41.641Z,5.20
2022-12-23T21:29:10.910Z,5.20
2022-12-23T21:31:39.794Z,5.30
2022-12-23T21:34:07.852Z,5.30
2022-12-23T21:36:37.621Z,5.30
2022-12-23T21:39:05.953Z,5.30
2022-12-23T21:41:36.581Z,5.30
2022-12-23T21:44:04.353Z,5.40
2022-12-23T21:46:31.664Z,5.40
2022-12-23T21:48:59.664Z,5.30
2022-12-23T21:51:36.698Z,5.30
2022-12-23T21:54:06.326Z,5.30
2022-12-23T21:56:33.359Z,5.40
2022-12-23T21:59:22.247Z,5.50
2022-12-23T22:01:50.483Z,5.50
2022-12-23T22:04:17.516Z,5.60
2022-12-23T22:06:45.698Z,5.60
2022-12-23T22:09:17.741Z,5.60
2022-12-23T22:11:45.964Z,5.60
2022-12-23T22:14:16.343Z,5.50
2022-12-23T22:16:43.758Z,5.40
2022-12-23T22:19:11.693Z,5.40
2022-12-23T22:21:39.927Z,5.50
2022-12-23T22:24:07.834Z,5.60
2022-12-23T22:26:35.335Z,5.60
2022-12-23T22:29:05.550Z,5.60
2022-12-23T22:31:39.936Z,5.60
2022-12-23T22:34:08.820Z,5.60
2022-12-23T22:36:36.315Z,5.50
2022-12-23T22:39:04.407Z,5.50
2022-12-23T22:41:31.758Z,5.50
2022-12-23T22:43:59.781Z,5.50
2022-12-23T22:46:27.539Z,5.60
2022-12-23T22:48:54.794Z,5.70
2022-12-23T22:51:24.529Z,5.70
2022-12-23T22:53:51.475Z,5.80
2022-12-23T22:56:20.222Z,5.70
2022-12-23T22:58:47.543Z,5.70
2022-12-23T23:01:30.210Z,5.60
2022-12-23T23:03:59.742Z,5.60
2022-12-23T23:06:29.781Z,5.60
2022-12-23T23:08:57.319Z,5.60
2022-12-23T23:11:25.874Z,5.60
2022-12-23T23:13:53.060Z,5.60
2022-12-23T23:16:20.047Z,5.70
2022-12-23T23:18:47.353Z,5.80
2022-12-23T23:21:14.953Z,5.80
2022-12-23T23:23:42.379Z,5.90
2022-12-23T23:26:10.623Z,5.90
2022-12-23T23:28:41.262Z,6.00
2022-12-23T23:31:40.486Z,5.90
2022-12-23T23:33:57.980Z,5.90
2022-12-23T23:36:25.666Z,5.90
2022-12-23T23:38:52.860Z,5.90
2022-12-23T23:41:23.376Z,5.90
2022-12-23T23:43:51.607Z,5.90
2022-12-23T23:46:19.313Z,5.90
2022-12-23T23:48:46.588Z,5.90
2022-12-23T23:51:13.655Z,5.90
2022-12-23T23:53:40.967Z,5.80
2022-12-23T23:56:08.566Z,5.80
2022-12-23T23:58:36.482Z,5.70
